createdAt,value
2019-01-06T00:02:42.673Z,103088.50
2019-01-06T00:05:19.140Z,103093.87
2019-01-06T00:07:53.340Z,103095.16
2019-01-06T00:10:30.222Z,103100.13
2019-01-06T00:13:04.412Z,103096.47
2019-01-06T00:15:41.227Z,103093.89
2019-01-06T00:18:18.929Z,103092.05
2019-01-06T00:20:53.426Z,103099.78
2019-01-06T00:24:31.647Z,103084.14
2019-01-06T00:27:04.668Z,103088.03
2019-01-06T00:29:38.896Z,103094.10
2019-01-06T00:32:13.654Z,103098.16
2019-01-06T00:34:49.548Z,103104.37
2019-01-06T00:38:23.538Z,103103.83
2019-01-06T00:40:57.787Z,103101.44
2019-01-06T00:43:42.727Z,103104.23
2019-01-06T00:47:19.822Z,103111.41
2019-01-06T00:49:53.960Z,103112.48
2019-01-06T00:52:28.767Z,103113.39
2019-01-06T00:55:03.601Z,103113.03
2019-01-06T00:57:37.587Z,103122.97
2019-01-06T01:00:11.811Z,103124.47
2019-01-06T01:03:12.035Z,103133.48
2019-01-06T01:05:47.907Z,103133.86
2019-01-06T01:09:20.844Z,103130.14
2019-01-06T01:11:56.778Z,103128.86
2019-01-06T01:14:30.944Z,103131.83
2019-01-06T01:17:08.964Z,103126.16
2019-01-06T01:19:43.044Z,103126.67
2019-01-06T01:22:23.024Z,103137.53
2019-01-06T01:24:57.786Z,103138.09
2019-01-06T01:27:35.815Z,103137.53
2019-01-06T01:30:10.439Z,103140.11
2019-01-06T01:32:50.094Z,103148.39
2019-01-06T01:36:23.029Z,103145.27
2019-01-06T01:41:01.025Z,103141.77
2019-01-06T01:43:38.054Z,103147.30
2019-01-06T01:46:13.205Z,103144.20
2019-01-06T01:48:48.045Z,103149.72
2019-01-06T01:52:20.176Z,103157.09
2019-01-06T01:54:54.100Z,103154.32
2019-01-06T01:57:31.942Z,103149.02
2019-01-06T02:00:37.433Z,103153.03
2019-01-06T02:03:17.699Z,103153.03
2019-01-06T02:05:51.920Z,103154.67
2019-01-06T02:08:29.764Z,103152.30
2019-01-06T02:11:39.433Z,103155.80
2019-01-06T02:14:17.955Z,103157.06
2019-01-06T02:17:06.993Z,103153.94
2019-01-06T02:19:42.461Z,103152.44
2019-01-06T02:22:21.590Z,103164.03
2019-01-06T02:25:58.762Z,103156.30
2019-01-06T02:30:36.582Z,103159.30
2019-01-06T02:33:09.504Z,103157.12
2019-01-06T02:35:47.642Z,103155.28
2019-01-06T02:38:21.783Z,103161.36
2019-01-06T02:40:57.627Z,103159.88
2019-01-06T02:43:32.608Z,103163.94
2019-01-06T02:46:13.631Z,103165.78
2019-01-06T02:48:46.898Z,103166.52
2019-01-06T02:51:56.252Z,103163.56
2019-01-06T02:54:29.224Z,103160.78
2019-01-06T02:57:09.154Z,103155.82
2019-01-06T02:59:44.647Z,103159.13
2019-01-06T03:02:18.759Z,103158.01
2019-01-06T03:04:56.780Z,103150.09
2019-01-06T03:07:30.897Z,103142.55
2019-01-06T03:10:05.231Z,103147.15
2019-01-06T03:12:42.855Z,103143.46
2019-01-06T03:16:16.726Z,103141.08
2019-01-06T03:18:51.730Z,103140.36
2019-01-06T03:21:25.866Z,103140.73
2019-01-06T03:24:00.196Z,103137.97
2019-01-06T03:26:44.239Z,103133.76
2019-01-06T03:30:18.024Z,103135.78
2019-01-06T03:32:54.126Z,103128.27
2019-01-06T03:35:27.368Z,103133.41
2019-01-06T03:38:02.273Z,103129.36
2019-01-06T03:40:35.345Z,103127.19
2019-01-06T03:43:15.316Z,103121.82
2019-01-06T03:46:24.082Z,103130.11
2019-01-06T03:49:18.279Z,103124.95
2019-01-06T03:51:52.394Z,103129.19
2019-01-06T03:55:00.718Z,103123.32
2019-01-06T03:57:34.768Z,103123.69
2019-01-06T04:00:10.114Z,103116.48
2019-01-06T04:02:48.014Z,103119.25
2019-01-06T04:05:36.299Z,103114.12
2019-01-06T04:08:11.014Z,103110.63
2019-01-06T04:12:50.068Z,103109.33
2019-01-06T04:15:26.026Z,103101.81
2019-01-06T04:18:06.609Z,103104.39
2019-01-06T04:20:59.790Z,103108.63
2019-01-06T04:23:35.674Z,103100.19
2019-01-06T04:26:10.733Z,103103.65
2019-01-06T04:28:44.973Z,103098.34
2019-01-06T04:31:19.939Z,103102.57
2019-01-06T04:36:00.039Z,103101.09
2019-01-06T04:38:39.116Z,103097.10
2019-01-06T04:41:17.144Z,103093.23
2019-01-06T04:43:51.434Z,103096.00
2019-01-06T04:46:27.391Z,103097.45
2019-01-06T04:49:03.276Z,103095.42
2019-01-06T04:52:40.495Z,103101.52
2019-01-06T04:55:17.470Z,103099.67
2019-01-06T04:57:57.628Z,103093.61
2019-01-06T05:00:33.583Z,103087.53
2019-01-06T05:03:08.128Z,103088.09
2019-01-06T05:05:42.364Z,103089.72
2019-01-06T05:09:17.430Z,103092.85
2019-01-06T05:11:51.535Z,103084.78
2019-01-06T05:14:25.796Z,103083.30
2019-01-06T05:17:01.847Z,103084.22
2019-01-06T05:19:35.943Z,103086.80
2019-01-06T05:22:10.944Z,103090.66
2019-01-06T05:24:45.155Z,103089.59
2019-01-06T05:27:19.207Z,103090.87
2019-01-06T05:29:54.528Z,103088.30
2019-01-06T05:32:27.511Z,103091.39
2019-01-06T05:35:59.852Z,103084.61
2019-01-06T05:38:37.842Z,103091.26
2019-01-06T05:41:11.932Z,103094.56
2019-01-06T05:43:50.818Z,103094.37
2019-01-06T05:46:25.021Z,103099.00
2019-01-06T05:48:59.756Z,103097.89
2019-01-06T05:56:45.413Z,103107.27
2019-01-06T05:59:19.654Z,103109.13
2019-01-06T06:01:54.593Z,103114.85
2019-01-06T06:04:41.272Z,103115.22
2019-01-06T06:07:16.051Z,103120.00
2019-01-06T06:09:50.316Z,103115.01
2019-01-06T06:12:25.772Z,103123.13
2019-01-06T06:14:59.914Z,103120.55
2019-01-06T06:17:37.799Z,103128.07
2019-01-06T06:20:10.823Z,103128.78
2019-01-06T06:22:54.380Z,103127.13
2019-01-06T06:25:28.275Z,103125.84
2019-01-06T06:29:02.081Z,103125.84
2019-01-06T06:31:35.634Z,103129.55
2019-01-06T06:34:09.851Z,103123.48
2019-01-06T06:36:52.937Z,103122.55
2019-01-06T06:39:27.935Z,103119.08
2019-01-06T06:42:00.899Z,103120.75
2019-01-06T06:44:33.926Z,103118.38
2019-01-06T06:48:13.941Z,103122.41
2019-01-06T06:50:58.852Z,103121.13
2019-01-06T06:53:33.143Z,103123.70
2019-01-06T06:56:08.322Z,103130.50
2019-01-06T06:58:45.339Z,103134.00
2019-01-06T07:02:30.340Z,103150.92
2019-01-06T07:05:03.614Z,103146.88
2019-01-06T07:07:38.386Z,103157.73
2019-01-06T07:10:12.671Z,103155.16
2019-01-06T07:13:50.453Z,103159.38
2019-01-06T07:16:36.179Z,103162.15
2019-01-06T07:19:10.188Z,103156.45
2019-01-06T07:21:55.152Z,103156.75
2019-01-06T07:24:38.335Z,103160.66
2019-01-06T07:27:20.633Z,103168.38
2019-01-06T07:30:54.204Z,103169.11
2019-01-06T07:34:27.213Z,103176.67
2019-01-06T07:37:01.505Z,103175.75
2019-01-06T07:39:35.720Z,103173.38
2019-01-06T07:42:25.619Z,103186.59
2019-01-06T07:45:08.051Z,103182.17
2019-01-06T07:47:43.783Z,103184.94
2019-01-06T07:51:15.798Z,103187.30
2019-01-06T07:53:50.143Z,103188.97
2019-01-06T07:56:24.228Z,103195.41
2019-01-06T07:58:58.947Z,103196.14
2019-01-06T08:02:06.215Z,103204.64
2019-01-06T08:04:40.727Z,103204.45
2019-01-06T08:07:14.924Z,103200.60
2019-01-06T08:09:48.076Z,103204.81
2019-01-06T08:12:21.715Z,103205.73
2019-01-06T08:14:56.000Z,103206.84
2019-01-06T08:17:36.803Z,103208.11
2019-01-06T08:20:09.862Z,103210.12
2019-01-06T08:22:42.897Z,103210.28
2019-01-06T08:25:47.256Z,103210.48
2019-01-06T08:28:21.996Z,103210.70
2019-01-06T08:31:11.184Z,103210.86
2019-01-06T08:33:52.662Z,103209.77
2019-01-06T08:36:27.532Z,103215.44
2019-01-06T08:39:01.684Z,103218.77
2019-01-06T08:41:35.808Z,103217.85
2019-01-06T08:44:21.879Z,103225.73
2019-01-06T08:47:00.809Z,103232.34
2019-01-06T08:49:34.160Z,103231.05
2019-01-06T08:52:08.348Z,103230.84
2019-01-06T08:54:43.159Z,103226.80
2019-01-06T08:57:30.179Z,103233.01
2019-01-06T09:01:13.300Z,103231.14
2019-01-06T09:03:50.379Z,103221.95
2019-01-06T09:06:38.502Z,103229.09
2019-01-06T09:09:15.360Z,103226.83
2019-01-06T09:11:50.272Z,103222.59
2019-01-06T09:15:25.417Z,103223.88
2019-01-06T09:18:18.523Z,103219.63
2019-01-06T09:20:52.990Z,103218.30
2019-01-06T09:23:28.813Z,103218.86
2019-01-06T09:27:07.491Z,103221.94
2019-01-06T09:29:41.514Z,103229.60
2019-01-06T09:33:19.147Z,103232.69
2019-01-06T09:35:57.340Z,103239.41
2019-01-06T09:38:34.443Z,103246.00
2019-01-06T09:43:12.214Z,103253.23
2019-01-06T09:45:47.282Z,103255.38
2019-01-06T09:48:21.900Z,103256.64
2019-01-06T09:50:58.684Z,103257.17
2019-01-06T09:53:36.328Z,103257.66
2019-01-06T09:56:21.079Z,103259.08
2019-01-06T10:02:44.402Z,103266.64
2019-01-06T10:05:32.560Z,103259.45
2019-01-06T10:09:06.577Z,103267.59
2019-01-06T10:11:41.407Z,103266.84
2019-01-06T10:15:18.641Z,103263.28
2019-01-06T10:17:52.619Z,103267.34
2019-01-06T10:20:27.060Z,103266.58
2019-01-06T10:23:03.147Z,103266.33
2019-01-06T10:25:37.727Z,103266.66
2019-01-06T10:28:13.524Z,103266.08
2019-01-06T10:30:46.716Z,103265.41
2019-01-06T10:35:26.925Z,103267.00
2019-01-06T10:38:02.054Z,103268.34
2019-01-06T10:40:42.115Z,103266.56
2019-01-06T10:43:47.053Z,103254.69
2019-01-06T10:46:34.057Z,103263.61
2019-01-06T10:49:08.354Z,103256.28
2019-01-06T10:51:51.440Z,103253.80
2019-01-06T10:55:28.141Z,103259.52
2019-01-06T10:57:59.257Z,103253.56
2019-01-06T11:00:33.460Z,103257.73
2019-01-06T11:03:11.309Z,103253.02
2019-01-06T11:05:44.287Z,103253.77
2019-01-06T11:08:18.570Z,103252.84
2019-01-06T11:10:53.507Z,103258.23
2019-01-06T11:13:29.426Z,103256.89
2019-01-06T11:16:03.618Z,103260.69
2019-01-06T11:18:41.316Z,103257.11
2019-01-06T11:21:16.335Z,103253.37
2019-01-06T11:23:56.516Z,103253.33
2019-01-06T11:26:31.592Z,103255.13
2019-01-06T11:29:23.787Z,103254.31
2019-01-06T11:33:01.910Z,103262.12
2019-01-06T11:35:38.072Z,103258.70
2019-01-06T11:38:11.669Z,103256.91
2019-01-06T11:40:45.817Z,103258.75
2019-01-06T11:43:22.659Z,103259.02
2019-01-06T11:46:13.427Z,103252.65
2019-01-06T11:50:52.483Z,103247.67
2019-01-06T11:53:28.539Z,103243.47
2019-01-06T11:56:05.259Z,103236.37
2019-01-06T11:58:42.875Z,103232.02
2019-01-06T12:01:17.936Z,103234.42
2019-01-06T12:04:02.181Z,103230.55
2019-01-06T12:06:38.988Z,103229.75
2019-01-06T12:09:11.948Z,103230.30
2019-01-06T12:12:47.932Z,103229.34
2019-01-06T12:15:24.191Z,103226.84
2019-01-06T12:18:06.783Z,103225.30
2019-01-06T12:20:45.894Z,103231.52
2019-01-06T12:23:22.958Z,103224.20
2019-01-06T12:25:57.988Z,103221.80
2019-01-06T12:29:29.883Z,103225.09
2019-01-06T12:32:05.896Z,103222.74
2019-01-06T12:34:40.676Z,103211.30
2019-01-06T12:37:17.734Z,103216.88
2019-01-06T12:40:07.012Z,103207.88
2019-01-06T12:42:42.091Z,103204.56
2019-01-06T12:45:18.268Z,103206.42
2019-01-06T12:47:53.663Z,103208.80
2019-01-06T12:50:33.620Z,103201.46
2019-01-06T12:53:07.850Z,103206.65
2019-01-06T12:55:42.060Z,103199.63
2019-01-06T12:59:21.391Z,103198.63
2019-01-06T13:01:59.844Z,103200.98
2019-01-06T13:04:34.176Z,103205.91
2019-01-06T13:07:10.105Z,103201.03
2019-01-06T13:10:48.224Z,103204.88
2019-01-06T13:13:25.246Z,103210.67
2019-01-06T13:16:00.763Z,103209.48
2019-01-06T13:18:35.892Z,103210.17
2019-01-06T13:21:10.243Z,103207.65
2019-01-06T13:23:51.855Z,103214.48
2019-01-06T13:26:25.840Z,103211.40
2019-01-06T13:29:00.991Z,103214.37
2019-01-06T13:32:32.612Z,103213.19
2019-01-06T13:37:10.333Z,103216.38
2019-01-06T13:39:59.590Z,103225.02
2019-01-06T13:42:43.536Z,103224.75
2019-01-06T13:45:17.735Z,103225.41
2019-01-06T13:47:52.252Z,103231.59
2019-01-06T13:50:26.924Z,103234.18
2019-01-06T13:53:01.246Z,103238.48
2019-01-06T13:55:35.696Z,103234.42
2019-01-06T13:58:09.995Z,103242.41
2019-01-06T14:00:44.028Z,103239.36
2019-01-06T14:03:20.875Z,103242.22
2019-01-06T14:05:54.818Z,103246.28
2019-01-06T14:08:33.816Z,103248.13
2019-01-06T14:11:11.895Z,103247.77
2019-01-06T14:13:48.847Z,103249.97
2019-01-06T14:16:27.698Z,103248.68
2019-01-06T14:19:03.504Z,103246.24
2019-01-06T14:21:37.867Z,103247.71
2019-01-06T14:24:13.834Z,103246.09
2019-01-06T14:26:51.954Z,103256.44
2019-01-06T14:29:26.166Z,103255.75
2019-01-06T14:32:00.757Z,103256.75
2019-01-06T14:34:37.622Z,103257.58
2019-01-06T14:37:10.654Z,103253.14
2019-01-06T14:39:44.807Z,103254.44
2019-01-06T14:43:17.819Z,103251.67
2019-01-06T14:47:54.910Z,103256.19
2019-01-06T14:50:38.927Z,103256.72
2019-01-06T14:53:29.708Z,103257.09
2019-01-06T14:56:02.339Z,103256.05
2019-01-06T14:58:35.349Z,103263.28
2019-01-06T15:03:14.600Z,103266.49
2019-01-06T15:05:48.922Z,103275.81
2019-01-06T15:08:27.007Z,103272.94
2019-01-06T15:11:06.095Z,103271.86
2019-01-06T15:13:42.080Z,103275.05
2019-01-06T15:18:19.374Z,103280.03
2019-01-06T15:21:30.536Z,103279.54
2019-01-06T15:24:20.743Z,103283.07
2019-01-06T15:26:56.334Z,103287.49
2019-01-06T15:29:50.467Z,103279.05
2019-01-06T15:32:57.939Z,103277.94
2019-01-06T15:35:37.978Z,103276.12
2019-01-06T15:38:16.983Z,103279.84
2019-01-06T15:41:27.562Z,103284.87
2019-01-06T15:44:01.788Z,103283.27
2019-01-06T15:46:42.298Z,103286.94
2019-01-06T15:49:48.722Z,103291.91
2019-01-06T15:52:56.422Z,103286.59
2019-01-06T15:55:29.383Z,103295.99
2019-01-06T15:58:03.568Z,103297.42
2019-01-06T16:00:40.826Z,103293.58
2019-01-06T16:03:17.811Z,103292.81
2019-01-06T16:05:52.248Z,103295.58
2019-01-06T16:10:28.959Z,103296.13
2019-01-06T16:13:03.857Z,103282.12
2019-01-06T16:15:37.915Z,103286.94
2019-01-06T16:18:44.676Z,103286.05
2019-01-06T16:21:18.812Z,103287.20
2019-01-06T16:23:53.129Z,103290.52
2019-01-06T16:27:25.774Z,103289.25
2019-01-06T16:30:01.712Z,103293.35
2019-01-06T16:32:36.014Z,103293.55
2019-01-06T16:35:11.291Z,103298.55
2019-01-06T16:38:48.000Z,103296.15
2019-01-06T16:41:24.042Z,103296.52
2019-01-06T16:44:04.886Z,103291.92
2019-01-06T16:46:41.371Z,103294.86
2019-01-06T16:49:15.394Z,103292.13
2019-01-06T16:52:47.395Z,103290.28
2019-01-06T16:55:21.735Z,103296.88
2019-01-06T16:59:59.609Z,103294.13
2019-01-06T17:02:34.857Z,103291.74
2019-01-06T17:05:09.719Z,103293.03
2019-01-06T17:07:42.695Z,103291.37
2019-01-06T17:10:47.951Z,103295.61
2019-01-06T17:13:22.168Z,103300.98
2019-01-06T17:16:01.183Z,103302.08
2019-01-06T17:18:35.349Z,103307.63
2019-01-06T17:21:17.383Z,103304.13
2019-01-06T17:23:52.050Z,103304.66
2019-01-06T17:26:29.075Z,103311.48
2019-01-06T17:31:07.271Z,103304.48
2019-01-06T17:34:11.539Z,103308.73
2019-01-06T17:38:50.540Z,103308.94
2019-01-06T17:41:24.491Z,103312.28
2019-01-06T17:43:59.399Z,103314.67
2019-01-06T17:47:35.486Z,103318.01
2019-01-06T17:50:08.759Z,103315.61
2019-01-06T17:53:00.052Z,103319.11
2019-01-06T17:56:32.978Z,103323.70
2019-01-06T17:59:13.998Z,103322.06
2019-01-06T18:01:50.088Z,103326.30
2019-01-06T18:04:24.394Z,103325.92
2019-01-06T18:07:13.438Z,103328.70
2019-01-06T18:09:47.672Z,103331.98
2019-01-06T18:13:25.651Z,103341.56
2019-01-06T18:15:59.687Z,103339.00
2019-01-06T18:18:35.896Z,103339.53
2019-01-06T18:21:10.442Z,103338.08
2019-01-06T18:23:44.661Z,103341.58
2019-01-06T18:27:22.000Z,103340.30
2019-01-06T18:29:56.215Z,103344.89
2019-01-06T18:32:45.406Z,103345.09
2019-01-06T18:35:19.635Z,103340.87
2019-01-06T18:37:54.801Z,103339.38
2019-01-06T18:40:30.825Z,103336.95
2019-01-06T18:44:08.740Z,103334.56
2019-01-06T18:46:45.229Z,103339.99
2019-01-06T18:49:26.299Z,103351.09
2019-01-06T18:52:00.450Z,103352.61
2019-01-06T18:54:34.965Z,103345.09
2019-01-06T18:57:09.195Z,103348.20
2019-01-06T18:59:42.725Z,103347.32
2019-01-06T19:02:22.655Z,103349.70
2019-01-06T19:07:04.993Z,103347.69
2019-01-06T19:09:39.246Z,103346.20
2019-01-06T19:12:12.330Z,103345.13
2019-01-06T19:14:49.295Z,103341.63
2019-01-06T19:19:32.270Z,103339.22
2019-01-06T19:24:11.082Z,103351.02
2019-01-06T19:27:20.547Z,103348.47
2019-01-06T19:29:56.375Z,103344.81
2019-01-06T19:32:30.959Z,103352.70
2019-01-06T19:35:04.981Z,103351.41
2019-01-06T19:39:42.403Z,103351.77
2019-01-06T19:43:14.302Z,103360.44
2019-01-06T19:45:55.372Z,103363.76
2019-01-06T19:48:34.275Z,103356.97
2019-01-06T19:51:08.510Z,103356.25
2019-01-06T19:53:45.154Z,103359.55
2019-01-06T19:56:26.272Z,103359.55
2019-01-06T19:59:04.271Z,103358.45
2019-01-06T20:01:39.331Z,103364.17
2019-01-06T20:04:14.459Z,103362.52
2019-01-06T20:06:48.967Z,103364.16
2019-01-06T20:09:23.393Z,103361.75
2019-01-06T20:12:06.628Z,103363.95
2019-01-06T20:14:43.962Z,103356.23
2019-01-06T20:17:50.522Z,103356.23
2019-01-06T20:20:25.220Z,103347.79
2019-01-06T20:22:59.367Z,103346.67
2019-01-06T20:25:35.016Z,103348.89
2019-01-06T20:28:11.027Z,103352.76
2019-01-06T20:30:45.299Z,103355.34
2019-01-06T20:33:35.339Z,103347.82
2019-01-06T20:36:12.304Z,103353.54
2019-01-06T20:38:47.295Z,103357.20
2019-01-06T20:43:26.876Z,103352.61
2019-01-06T20:47:02.078Z,103354.46
2019-01-06T20:49:40.167Z,103353.34
2019-01-06T20:52:16.316Z,103352.61
2019-01-06T20:54:54.477Z,103352.37
2019-01-06T20:59:33.541Z,103361.61
2019-01-06T21:03:11.472Z,103358.28
2019-01-06T21:05:46.495Z,103366.72
2019-01-06T21:08:20.442Z,103369.30
2019-01-06T21:11:00.336Z,103360.28
2019-01-06T21:15:37.365Z,103360.28
2019-01-06T21:18:11.299Z,103360.45
2019-01-06T21:22:50.397Z,103360.44
2019-01-06T21:26:27.243Z,103363.19
2019-01-06T21:29:32.648Z,103369.23
2019-01-06T21:32:06.880Z,103371.58
2019-01-06T21:34:41.924Z,103370.84
2019-01-06T21:37:49.407Z,103374.33
2019-01-06T21:40:27.297Z,103372.66
2019-01-06T21:43:01.521Z,103374.85
2019-01-06T21:45:40.669Z,103368.42
2019-01-06T21:48:19.435Z,103379.41
2019-01-06T21:50:53.277Z,103366.19
2019-01-06T21:54:04.141Z,103371.12
2019-01-06T21:56:34.836Z,103369.11
2019-01-06T21:59:10.825Z,103365.80
2019-01-06T22:01:47.908Z,103364.14
2019-01-06T22:04:23.877Z,103359.52
2019-01-06T22:07:02.911Z,103371.46
2019-01-06T22:09:41.051Z,103371.61
2019-01-06T22:12:15.225Z,103370.16
2019-01-06T22:14:54.815Z,103374.17
2019-01-06T22:17:30.712Z,103374.53
2019-01-06T22:20:09.715Z,103367.02
2019-01-06T22:22:44.394Z,103377.08
2019-01-06T22:25:19.704Z,103375.27
2019-01-06T22:27:56.639Z,103377.81
2019-01-06T22:30:30.587Z,103380.38
2019-01-06T22:33:04.802Z,103379.45
2019-01-06T22:35:39.139Z,103384.05
2019-01-06T22:38:22.993Z,103376.91
2019-01-06T22:40:57.135Z,103385.54
2019-01-06T22:43:34.102Z,103385.54
2019-01-06T22:46:08.178Z,103381.69
2019-01-06T22:48:43.671Z,103378.00
2019-01-06T22:51:17.912Z,103379.28
2019-01-06T22:53:50.892Z,103380.42
2019-01-06T22:56:31.763Z,103384.08
2019-01-06T22:59:06.299Z,103390.86
2019-01-06T23:01:42.277Z,103376.55
2019-01-06T23:04:16.352Z,103372.70
2019-01-06T23:06:50.754Z,103373.77
2019-01-06T23:09:26.991Z,103375.06
2019-01-06T23:12:01.300Z,103378.91
2019-01-06T23:14:40.883Z,103378.91
2019-01-06T23:17:17.459Z,103384.78
2019-01-06T23:19:54.448Z,103388.28
2019-01-06T23:24:37.159Z,103389.94
2019-01-06T23:27:16.144Z,103386.64
2019-01-06T23:29:52.039Z,103383.86
2019-01-06T23:32:26.304Z,103385.54
2019-01-06T23:35:00.374Z,103391.03
2019-01-06T23:37:33.349Z,103381.48
2019-01-06T23:40:09.435Z,103383.69
2019-01-06T23:42:46.449Z,103385.90
2019-01-06T23:46:22.560Z,103381.29
2019-01-06T23:48:58.091Z,103373.77
2019-01-06T23:51:32.233Z,103367.91
2019-01-06T23:54:13.308Z,103367.88
2019-01-06T23:56:47.183Z,103363.09
2019-01-06T23:59:51.542Z,103362.86
